createdAt,value
2022-08-12T00:00:25.772Z,45
2022-08-12T00:02:06.928Z,45
2022-08-12T00:03:09.541Z,45
2022-08-12T00:04:23.272Z,45
2022-08-12T00:05:26.746Z,45
2022-08-12T00:06:29.169Z,45
2022-08-12T00:07:32.079Z,45
2022-08-12T00:08:38.242Z,45
2022-08-12T00:09:41.562Z,45
2022-08-12T00:10:43.915Z,45
2022-08-12T00:11:46.630Z,45
2022-08-12T00:12:49.499Z,45
2022-08-12T00:13:52.145Z,46
2022-08-12T00:14:55.050Z,46
2022-08-12T00:15:57.077Z,46
2022-08-12T00:17:02.077Z,46
2022-08-12T00:18:04.968Z,46
2022-08-12T00:19:09.642Z,46
2022-08-12T00:20:12.781Z,46
2022-08-12T00:21:14.856Z,46
2022-08-12T00:22:17.947Z,46
2022-08-12T00:23:21.777Z,46
2022-08-12T00:24:24.407Z,46
2022-08-12T00:26:25.279Z,46
2022-08-12T00:27:45.012Z,47
2022-08-12T00:28:47.857Z,47
2022-08-12T00:29:50.707Z,47
2022-08-12T00:30:53.895Z,47
2022-08-12T00:31:55.897Z,47
2022-08-12T00:33:04.450Z,48
2022-08-12T00:34:07.755Z,48
2022-08-12T00:35:14.018Z,48
2022-08-12T00:36:38.874Z,48
2022-08-12T00:37:52.222Z,48
2022-08-12T00:38:54.610Z,48
2022-08-12T00:39:58.253Z,48
2022-08-12T00:41:00.765Z,48
2022-08-12T00:42:03.596Z,48
2022-08-12T00:43:06.517Z,48
2022-08-12T00:44:10.111Z,48
2022-08-12T00:45:14.823Z,48
2022-08-12T00:46:17.511Z,48
2022-08-12T00:47:27.117Z,48
2022-08-12T00:48:29.683Z,48
2022-08-12T00:49:31.972Z,48
2022-08-12T00:50:35.320Z,48
2022-08-12T00:51:38.221Z,49
2022-08-12T00:52:41.967Z,49
2022-08-12T00:53:44.522Z,49
2022-08-12T00:54:46.871Z,49
2022-08-12T00:55:49.422Z,49
2022-08-12T00:56:52.695Z,49
2022-08-12T00:57:55.887Z,49
2022-08-12T00:58:57.964Z,49
2022-08-12T01:00:00.617Z,49
2022-08-12T01:01:03.282Z,50
2022-08-12T01:02:13.938Z,50
2022-08-12T01:03:17.190Z,50
2022-08-12T01:04:20.594Z,50
2022-08-12T01:05:22.888Z,50
2022-08-12T01:06:25.520Z,50
2022-08-12T01:07:28.214Z,50
2022-08-12T01:08:31.120Z,50
2022-08-12T01:09:34.090Z,50
2022-08-12T01:10:37.008Z,51
2022-08-12T01:11:39.633Z,51
2022-08-12T01:12:42.165Z,51
2022-08-12T01:13:44.455Z,51
2022-08-12T01:14:47.351Z,51
2022-08-12T01:15:49.719Z,51
2022-08-12T01:16:52.423Z,51
2022-08-12T01:17:55.344Z,51
2022-08-12T01:18:58.262Z,52
2022-08-12T01:20:01.450Z,52
2022-08-12T01:21:03.794Z,52
2022-08-12T01:22:06.480Z,52
2022-08-12T01:23:09.321Z,52
2022-08-12T01:24:32.761Z,52
2022-08-12T01:25:57.117Z,52
2022-08-12T01:27:00.255Z,52
2022-08-12T01:28:02.883Z,52
2022-08-12T01:29:06.297Z,52
2022-08-12T01:30:09.908Z,52
2022-08-12T01:31:17.538Z,52
2022-08-12T01:32:20.373Z,52
2022-08-12T01:33:23.062Z,52
2022-08-12T01:34:39.204Z,52
2022-08-12T01:35:42.149Z,52
2022-08-12T01:36:44.718Z,52
2022-08-12T01:37:47.406Z,53
2022-08-12T01:38:49.764Z,53
2022-08-12T01:40:46.895Z,53
2022-08-12T01:41:54.753Z,53
2022-08-12T01:42:57.998Z,53
2022-08-12T01:44:00.286Z,53
2022-08-12T01:45:03.150Z,53
2022-08-12T01:46:05.561Z,53
2022-08-12T01:47:08.418Z,53
2022-08-12T01:48:11.324Z,53
2022-08-12T01:49:21.686Z,53
2022-08-12T01:50:24.388Z,53
2022-08-12T01:52:23.562Z,53
2022-08-12T01:53:26.618Z,55
2022-08-12T01:54:29.240Z,55
2022-08-12T01:55:31.789Z,55
2022-08-12T01:56:34.385Z,55
2022-08-12T01:58:02.930Z,56
2022-08-12T01:59:12.612Z,56
2022-08-12T02:00:16.038Z,56
2022-08-12T02:01:19.815Z,56
2022-08-12T02:02:22.832Z,57
2022-08-12T02:03:25.951Z,57
2022-08-12T02:04:29.069Z,57
2022-08-12T02:05:34.075Z,57
2022-08-12T02:06:36.643Z,56
2022-08-12T02:07:39.005Z,56
2022-08-12T02:08:41.631Z,56
2022-08-12T02:09:44.525Z,57
2022-08-12T02:10:53.206Z,57
2022-08-12T02:12:08.883Z,57
2022-08-12T02:13:12.118Z,56
2022-08-12T02:14:15.215Z,56
2022-08-12T02:15:17.552Z,56
2022-08-12T02:16:20.122Z,55
2022-08-12T02:17:57.586Z,55
2022-08-12T02:19:00.714Z,55
2022-08-12T02:20:03.313Z,55
2022-08-12T02:21:06.511Z,55
2022-08-12T02:22:09.174Z,55
2022-08-12T02:23:12.090Z,56
2022-08-12T02:24:14.716Z,56
2022-08-12T02:25:17.412Z,56
2022-08-12T02:26:20.256Z,56
2022-08-12T02:27:23.241Z,56
2022-08-12T02:28:25.596Z,56
2022-08-12T02:29:27.881Z,56
2022-08-12T02:30:43.331Z,56
2022-08-12T02:31:46.178Z,56
2022-08-12T02:32:48.865Z,56
2022-08-12T02:33:51.650Z,57
2022-08-12T02:34:54.771Z,56
2022-08-12T02:35:57.950Z,57
2022-08-12T02:37:05.082Z,57
2022-08-12T02:38:07.770Z,57
2022-08-12T02:39:10.447Z,57
2022-08-12T02:40:13.564Z,57
2022-08-12T02:41:16.135Z,57
2022-08-12T02:42:19.038Z,57
2022-08-12T02:43:21.897Z,57
2022-08-12T02:44:24.774Z,57
2022-08-12T02:45:28.011Z,57
2022-08-12T02:46:30.030Z,57
2022-08-12T02:48:02.399Z,56
2022-08-12T02:49:05.527Z,56
2022-08-12T02:50:08.217Z,57
2022-08-12T02:51:11.134Z,57
2022-08-12T02:52:13.209Z,57
2022-08-12T02:53:15.897Z,58
2022-08-12T02:54:18.536Z,58
2022-08-12T02:55:36.017Z,58
2022-08-12T02:56:39.405Z,59
2022-08-12T02:57:42.318Z,59
2022-08-12T02:58:47.507Z,59
2022-08-12T02:59:51.991Z,59
2022-08-12T03:00:54.897Z,59
2022-08-12T03:01:58.310Z,60
2022-08-12T03:03:01.232Z,60
2022-08-12T03:04:04.376Z,60
2022-08-12T03:05:06.723Z,60
2022-08-12T03:06:08.845Z,60
2022-08-12T03:07:10.879Z,60
2022-08-12T03:08:34.216Z,61
2022-08-12T03:10:19.816Z,61
2022-08-12T03:11:50.876Z,61
2022-08-12T03:12:57.584Z,61
2022-08-12T03:14:01.036Z,61
2022-08-12T03:15:03.608Z,61
2022-08-12T03:16:06.807Z,61
2022-08-12T03:17:09.748Z,60
2022-08-12T03:18:29.640Z,60
2022-08-12T03:19:32.820Z,60
2022-08-12T03:20:36.002Z,60
2022-08-12T03:22:10.242Z,60
2022-08-12T03:23:31.953Z,60
2022-08-12T03:24:38.985Z,60
2022-08-12T03:25:41.322Z,60
2022-08-12T03:26:43.951Z,60
2022-08-12T03:27:46.856Z,60
2022-08-12T03:28:50.047Z,61
2022-08-12T03:29:53.439Z,61
2022-08-12T03:30:58.479Z,61
2022-08-12T03:32:02.247Z,61
2022-08-12T03:33:05.369Z,61
2022-08-12T03:34:07.426Z,61
2022-08-12T03:35:42.892Z,60
2022-08-12T03:36:45.738Z,61
2022-08-12T03:37:48.856Z,61
2022-08-12T03:38:51.527Z,60
2022-08-12T03:39:55.194Z,60
2022-08-12T03:40:58.493Z,61
2022-08-12T03:42:01.656Z,61
2022-08-12T03:43:03.977Z,60
2022-08-12T03:44:06.633Z,60
2022-08-12T03:45:08.971Z,60
2022-08-12T03:46:12.142Z,60
2022-08-12T03:47:14.498Z,60
2022-08-12T03:48:20.705Z,60
2022-08-12T03:49:23.400Z,60
2022-08-12T03:50:25.970Z,61
2022-08-12T03:51:28.384Z,60
2022-08-12T03:52:31.329Z,60
2022-08-12T03:53:34.090Z,61
2022-08-12T03:54:43.714Z,61
2022-08-12T03:55:46.626Z,61
2022-08-12T03:56:48.637Z,61
2022-08-12T03:57:51.820Z,61
2022-08-12T03:58:54.786Z,60
2022-08-12T03:59:57.573Z,60
2022-08-12T04:01:01.179Z,60
2022-08-12T04:02:04.197Z,60
2022-08-12T04:03:13.763Z,60
2022-08-12T04:04:16.382Z,60
2022-08-12T04:05:56.260Z,59
2022-08-12T04:06:59.923Z,59
2022-08-12T04:08:02.212Z,60
2022-08-12T04:09:04.295Z,60
2022-08-12T04:10:06.951Z,60
2022-08-12T04:11:09.582Z,60
2022-08-12T04:12:11.984Z,60
2022-08-12T04:13:14.562Z,60
2022-08-12T04:14:17.245Z,60
2022-08-12T04:15:19.615Z,60
2022-08-12T04:16:22.469Z,61
2022-08-12T04:17:25.378Z,61
2022-08-12T04:18:28.228Z,61
2022-08-12T04:19:30.931Z,61
2022-08-12T04:20:33.841Z,61
2022-08-12T04:21:36.743Z,61
2022-08-12T04:23:06.546Z,61
2022-08-12T04:24:09.175Z,61
2022-08-12T04:25:11.437Z,61
2022-08-12T04:26:16.377Z,61
2022-08-12T04:27:18.242Z,61
2022-08-12T04:28:21.145Z,61
2022-08-12T04:30:34.442Z,62
2022-08-12T04:31:37.002Z,61
2022-08-12T04:32:46.382Z,61
2022-08-12T04:33:50.195Z,61
2022-08-12T04:34:53.653Z,61
2022-08-12T04:35:56.548Z,61
2022-08-12T04:36:59.729Z,61
2022-08-12T04:38:02.437Z,61
2022-08-12T04:39:05.889Z,61
2022-08-12T04:40:08.832Z,61
2022-08-12T04:41:11.726Z,61
2022-08-12T04:42:14.064Z,62
2022-08-12T04:44:03.393Z,62
2022-08-12T04:45:06.736Z,61
2022-08-12T04:46:09.075Z,60
2022-08-12T04:47:12.010Z,60
2022-08-12T04:48:16.677Z,60
2022-08-12T04:49:20.755Z,60
2022-08-12T04:50:38.011Z,59
2022-08-12T04:51:40.299Z,59
2022-08-12T04:52:43.861Z,59
2022-08-12T04:53:46.697Z,59
2022-08-12T04:54:49.260Z,60
2022-08-12T04:55:52.791Z,59
2022-08-12T04:57:06.069Z,59
2022-08-12T04:58:08.685Z,59
2022-08-12T04:59:11.915Z,59
2022-08-12T05:00:14.822Z,59
2022-08-12T05:01:17.738Z,59
2022-08-12T05:02:23.939Z,59
2022-08-12T05:03:26.476Z,59
2022-08-12T05:04:28.560Z,60
2022-08-12T05:05:37.592Z,60
2022-08-12T05:06:39.956Z,61
2022-08-12T05:07:56.013Z,61
2022-08-12T05:08:59.690Z,61
2022-08-12T05:10:04.406Z,61
2022-08-12T05:11:07.241Z,61
2022-08-12T05:12:10.534Z,61
2022-08-12T05:13:13.518Z,61
2022-08-12T05:14:16.305Z,61
2022-08-12T05:15:31.174Z,61
2022-08-12T05:16:38.410Z,61
2022-08-12T05:17:48.028Z,61
2022-08-12T05:18:51.591Z,61
2022-08-12T05:19:58.773Z,61
2022-08-12T05:21:04.729Z,61
2022-08-12T05:22:08.209Z,61
2022-08-12T05:23:14.623Z,61
2022-08-12T05:24:17.467Z,61
2022-08-12T05:25:23.389Z,61
2022-08-12T05:26:26.032Z,60
2022-08-12T05:27:31.976Z,60
2022-08-12T05:28:34.598Z,61
2022-08-12T05:30:09.869Z,61
2022-08-12T05:31:12.438Z,61
2022-08-12T05:32:15.353Z,61
2022-08-12T05:33:17.992Z,61
2022-08-12T05:34:27.353Z,62
2022-08-12T05:35:29.988Z,62
2022-08-12T05:36:33.477Z,62
2022-08-12T05:37:36.119Z,61
2022-08-12T05:38:38.195Z,61
2022-08-12T05:39:40.515Z,61
2022-08-12T05:40:43.680Z,60
2022-08-12T05:41:46.593Z,60
2022-08-12T05:42:48.897Z,61
2022-08-12T05:43:52.710Z,60
2022-08-12T05:44:55.218Z,60
2022-08-12T05:45:57.684Z,59
2022-08-12T05:47:00.073Z,60
2022-08-12T05:48:02.835Z,59
2022-08-12T05:49:05.969Z,60
2022-08-12T05:50:08.275Z,60
2022-08-12T05:51:15.693Z,59
2022-08-12T05:52:21.700Z,59
2022-08-12T05:53:24.333Z,59
2022-08-12T05:54:58.756Z,59
2022-08-12T05:56:01.852Z,59
2022-08-12T05:57:04.212Z,59
2022-08-12T05:58:06.785Z,59
2022-08-12T05:59:09.455Z,58
2022-08-12T06:00:12.663Z,58
2022-08-12T06:02:14.604Z,58
2022-08-12T06:03:20.448Z,58
2022-08-12T06:04:22.868Z,58
2022-08-12T06:05:26.060Z,58
2022-08-12T06:06:33.091Z,58
2022-08-12T06:08:04.218Z,58
2022-08-12T06:09:06.169Z,58
2022-08-12T06:10:09.731Z,58
2022-08-12T06:11:12.649Z,58
2022-08-12T06:12:15.616Z,58
2022-08-12T06:13:55.409Z,58
2022-08-12T06:15:13.119Z,58
2022-08-12T06:16:15.350Z,58
2022-08-12T06:17:17.420Z,58
2022-08-12T06:18:20.610Z,57
2022-08-12T06:19:22.913Z,57
2022-08-12T06:21:39.876Z,57
2022-08-12T06:22:43.466Z,56
2022-08-12T06:23:46.658Z,56
2022-08-12T06:24:49.336Z,56
2022-08-12T06:25:52.952Z,56
2022-08-12T06:26:55.917Z,56
2022-08-12T06:28:09.510Z,56
2022-08-12T06:29:12.082Z,56
2022-08-12T06:30:40.026Z,55
2022-08-12T06:31:42.976Z,55
2022-08-12T06:33:56.195Z,55
2022-08-12T06:37:01.395Z,54
2022-08-12T06:38:05.081Z,54
2022-08-12T06:39:16.996Z,54
2022-08-12T06:40:19.585Z,53
2022-08-12T06:41:22.707Z,53
2022-08-12T06:42:34.087Z,53
2022-08-12T06:44:08.747Z,53
2022-08-12T06:45:13.471Z,53
2022-08-12T06:46:16.086Z,53
2022-08-12T06:47:18.710Z,53
2022-08-12T06:48:21.356Z,53
2022-08-12T06:49:24.761Z,53
2022-08-12T06:50:38.160Z,52
2022-08-12T06:51:57.747Z,52
2022-08-12T06:53:00.880Z,52
2022-08-12T06:54:04.098Z,52
2022-08-12T06:55:07.605Z,52
2022-08-12T06:56:13.758Z,52
2022-08-12T06:58:11.333Z,51
2022-08-12T06:59:14.214Z,51
2022-08-12T07:00:16.605Z,51
2022-08-12T07:01:19.897Z,51
2022-08-12T07:02:23.440Z,51
2022-08-12T07:03:25.821Z,51
2022-08-12T07:04:44.434Z,51
2022-08-12T07:05:46.791Z,51
2022-08-12T07:06:53.122Z,51
2022-08-12T07:07:56.308Z,51
2022-08-12T07:08:59.278Z,51
2022-08-12T07:10:09.602Z,51
2022-08-12T07:11:12.463Z,51
2022-08-12T07:12:17.651Z,51
2022-08-12T07:13:20.275Z,51
2022-08-12T07:14:22.979Z,51
2022-08-12T07:15:25.055Z,51
2022-08-12T07:16:27.969Z,51
2022-08-12T07:17:30.874Z,51
2022-08-12T07:18:33.212Z,51
2022-08-12T07:19:46.190Z,51
2022-08-12T07:20:54.813Z,51
2022-08-12T07:22:03.657Z,51
2022-08-12T07:23:06.844Z,51
2022-08-12T07:24:09.696Z,51
2022-08-12T07:25:11.994Z,50
2022-08-12T07:26:17.452Z,51
2022-08-12T07:27:19.800Z,51
2022-08-12T07:28:22.458Z,51
2022-08-12T07:30:06.021Z,51
2022-08-12T07:31:09.437Z,51
2022-08-12T07:32:12.351Z,51
2022-08-12T07:33:15.211Z,52
2022-08-12T07:34:18.114Z,52
2022-08-12T07:35:21.123Z,52
2022-08-12T07:36:23.470Z,52
2022-08-12T07:37:25.769Z,53
2022-08-12T07:38:32.115Z,53
2022-08-12T07:39:36.434Z,53
2022-08-12T07:41:03.398Z,53
2022-08-12T07:42:06.340Z,53
2022-08-12T07:43:08.982Z,53
2022-08-12T07:44:11.344Z,53
2022-08-12T07:45:14.287Z,54
2022-08-12T07:46:16.998Z,54
2022-08-12T07:47:20.183Z,53
2022-08-12T07:48:24.066Z,53
2022-08-12T07:49:27.105Z,53
2022-08-12T07:50:30.236Z,52
2022-08-12T07:51:33.481Z,52
2022-08-12T07:52:36.073Z,52
2022-08-12T07:54:03.895Z,52
2022-08-12T07:55:06.175Z,52
2022-08-12T07:56:09.400Z,53
2022-08-12T07:57:12.374Z,53
2022-08-12T07:58:15.574Z,53
2022-08-12T07:59:17.707Z,52
2022-08-12T08:00:20.341Z,52
2022-08-12T08:01:23.803Z,52
2022-08-12T08:02:38.145Z,52
2022-08-12T08:03:50.365Z,52
2022-08-12T08:04:53.826Z,51
2022-08-12T08:05:55.572Z,51
2022-08-12T08:06:58.472Z,52
2022-08-12T08:08:01.681Z,51
2022-08-12T08:09:04.357Z,51
2022-08-12T08:10:07.043Z,51
2022-08-12T08:11:15.842Z,51
2022-08-12T08:12:21.029Z,52
2022-08-12T08:13:27.466Z,51
2022-08-12T08:14:30.164Z,51
2022-08-12T08:16:05.158Z,51
2022-08-12T08:17:07.954Z,51
2022-08-12T08:18:10.590Z,50
2022-08-12T08:19:13.290Z,50
2022-08-12T08:20:15.860Z,50
2022-08-12T08:21:18.484Z,51
2022-08-12T08:22:43.687Z,51
2022-08-12T08:24:05.705Z,50
2022-08-12T08:25:38.469Z,50
2022-08-12T08:26:41.105Z,50
2022-08-12T08:27:44.012Z,49
2022-08-12T08:28:46.653Z,49
2022-08-12T08:29:49.049Z,48
2022-08-12T08:30:52.730Z,48
2022-08-12T08:31:54.871Z,47
2022-08-12T08:32:57.770Z,46
2022-08-12T08:34:55.448Z,46
2022-08-12T08:36:03.003Z,47
2022-08-12T08:37:17.947Z,47
2022-08-12T08:38:36.165Z,47
2022-08-12T08:39:39.259Z,47
2022-08-12T08:40:42.110Z,47
2022-08-12T08:42:21.499Z,46
2022-08-12T08:43:24.881Z,45
2022-08-12T08:44:59.189Z,45
2022-08-12T08:46:02.101Z,45
2022-08-12T08:47:05.017Z,45
2022-08-12T08:48:07.366Z,46
2022-08-12T08:49:10.283Z,45
2022-08-12T08:50:12.428Z,45
2022-08-12T08:51:15.559Z,45
2022-08-12T08:52:41.798Z,45
2022-08-12T08:53:53.902Z,44
2022-08-12T08:54:56.195Z,44
2022-08-12T08:56:07.034Z,43
2022-08-12T08:57:10.448Z,42
2022-08-12T08:58:13.419Z,42
2022-08-12T08:59:16.259Z,43
2022-08-12T09:00:18.662Z,43
2022-08-12T09:01:21.560Z,43
2022-08-12T09:02:26.053Z,43
2022-08-12T09:05:26.198Z,44
2022-08-12T09:30:15.412Z,39
2022-08-12T09:33:05.451Z,39
2022-08-12T09:35:47.038Z,38
2022-08-12T09:37:25.558Z,38
2022-08-12T09:38:33.574Z,37
2022-08-12T09:44:41.387Z,36
2022-08-12T09:46:26.546Z,36
2022-08-12T09:47:35.158Z,35
2022-08-12T09:48:58.044Z,34
2022-08-12T09:50:20.885Z,34
2022-08-12T09:51:45.145Z,34
2022-08-12T09:53:04.793Z,34
2022-08-12T09:54:43.325Z,34
2022-08-12T09:59:01.286Z,34
2022-08-12T10:00:52.355Z,33
2022-08-12T10:02:51.370Z,32
2022-08-12T10:04:06.649Z,33
2022-08-12T10:05:21.467Z,33
2022-08-12T10:06:56.683Z,32
2022-08-12T10:08:03.933Z,32
2022-08-12T10:09:09.265Z,30
2022-08-12T10:10:31.320Z,29
2022-08-12T10:12:14.110Z,28
2022-08-12T10:14:16.988Z,26
2022-08-12T10:16:06.668Z,25
2022-08-12T10:17:25.841Z,25
2022-08-12T10:18:29.657Z,25
2022-08-12T10:19:38.051Z,25
2022-08-12T10:20:40.163Z,26
2022-08-12T10:21:43.805Z,26
2022-08-12T10:22:52.225Z,26
2022-08-12T10:23:58.522Z,25
2022-08-12T10:25:01.612Z,25
2022-08-12T10:26:40.650Z,26
2022-08-12T10:28:25.704Z,25
2022-08-12T10:31:04.970Z,26
2022-08-12T10:32:57.364Z,25
2022-08-12T10:34:28.031Z,25
2022-08-12T10:35:39.585Z,25
2022-08-12T10:36:52.466Z,25
2022-08-12T10:38:49.265Z,25
2022-08-12T10:40:21.997Z,25
2022-08-12T10:42:01.307Z,25
2022-08-12T10:43:05.594Z,26
2022-08-12T10:44:17.767Z,26
2022-08-12T10:45:25.031Z,27
2022-08-12T10:46:32.941Z,27
2022-08-12T10:48:35.232Z,27
2022-08-12T10:51:03.592Z,27
2022-08-12T10:53:47.930Z,26
2022-08-12T10:55:17.006Z,25
2022-08-12T10:56:22.067Z,25
2022-08-12T10:58:32.495Z,25
2022-08-12T11:01:25.677Z,25
2022-08-12T11:08:47.647Z,24
2022-08-12T11:10:03.875Z,24
2022-08-12T11:12:36.423Z,23
2022-08-12T11:14:52.680Z,23
2022-08-12T11:16:25.408Z,23
2022-08-12T11:17:57.634Z,23
2022-08-12T11:19:07.580Z,23
2022-08-12T11:20:16.347Z,23
2022-08-12T11:21:22.587Z,23
2022-08-12T11:23:40.530Z,23
2022-08-12T11:24:56.178Z,23
2022-08-12T11:26:08.487Z,23
2022-08-12T11:27:14.047Z,23
2022-08-12T11:28:39.106Z,22
2022-08-12T11:30:33.202Z,22
2022-08-12T11:32:03.644Z,22
2022-08-12T11:34:51.226Z,22
2022-08-12T11:36:02.008Z,21
2022-08-12T11:37:26.907Z,21
2022-08-12T11:38:29.534Z,21
2022-08-12T11:41:10.648Z,20
2022-08-12T11:42:13.494Z,21
2022-08-12T11:43:21.043Z,21
2022-08-12T11:44:44.312Z,20
2022-08-12T11:45:57.043Z,20
2022-08-12T11:47:00.230Z,20
2022-08-12T11:48:04.426Z,20
2022-08-12T11:49:06.491Z,20
2022-08-12T11:50:20.191Z,20
2022-08-12T11:51:40.641Z,20
2022-08-12T11:52:58.564Z,21
2022-08-12T11:54:02.992Z,21
2022-08-12T11:55:05.364Z,21
2022-08-12T11:56:11.623Z,21
2022-08-12T12:03:06.253Z,19
2022-08-12T12:04:11.557Z,19
2022-08-12T12:05:18.219Z,19
2022-08-12T12:06:25.163Z,19
2022-08-12T12:08:53.008Z,19
2022-08-12T12:09:56.771Z,19
2022-08-12T12:11:00.581Z,19
2022-08-12T12:12:03.792Z,19
2022-08-12T12:14:11.609Z,20
2022-08-12T12:15:41.665Z,19
2022-08-12T12:16:52.050Z,19
2022-08-12T12:17:57.005Z,19
2022-08-12T12:18:58.863Z,20
2022-08-12T12:20:01.227Z,20
2022-08-12T12:21:08.455Z,20
2022-08-12T12:22:31.347Z,20
2022-08-12T12:23:37.436Z,19
2022-08-12T12:24:40.782Z,19
2022-08-12T12:26:38.614Z,19
2022-08-12T12:28:07.122Z,19
2022-08-12T12:30:31.237Z,19
2022-08-12T12:32:14.422Z,19
2022-08-12T12:33:19.097Z,19
2022-08-12T12:34:31.586Z,19
2022-08-12T12:36:31.010Z,19
2022-08-12T12:38:13.415Z,19
2022-08-12T12:39:19.607Z,19
2022-08-12T12:40:34.917Z,19
2022-08-12T12:43:05.974Z,19
2022-08-12T12:44:50.874Z,19
2022-08-12T12:45:58.306Z,19
2022-08-12T12:47:01.788Z,19
2022-08-12T12:48:05.353Z,18
2022-08-12T12:49:16.103Z,19
2022-08-12T12:50:52.156Z,19
2022-08-12T12:52:27.229Z,19
2022-08-12T12:54:10.610Z,19
2022-08-12T12:55:14.676Z,18
2022-08-12T12:56:17.218Z,18
2022-08-12T12:58:01.406Z,18
2022-08-12T12:59:04.148Z,19
2022-08-12T13:00:06.406Z,18
2022-08-12T13:01:41.990Z,19
2022-08-12T13:02:55.060Z,19
2022-08-12T13:04:03.523Z,19
2022-08-12T13:05:28.248Z,19
2022-08-12T13:06:34.513Z,20
2022-08-12T13:08:02.452Z,20
2022-08-12T13:09:11.205Z,20
2022-08-12T13:10:17.190Z,20
2022-08-12T13:11:20.367Z,19
2022-08-12T13:12:53.866Z,19
2022-08-12T13:14:31.333Z,19
2022-08-12T13:15:49.600Z,19
2022-08-12T13:16:54.027Z,19
2022-08-12T13:18:05.944Z,19
2022-08-12T13:19:08.757Z,19
2022-08-12T13:20:11.076Z,19
2022-08-12T13:21:45.187Z,19
2022-08-12T13:22:46.998Z,19
2022-08-12T13:23:49.134Z,19
2022-08-12T13:24:57.925Z,19
2022-08-12T13:26:01.293Z,19
2022-08-12T13:27:07.858Z,19
2022-08-12T13:28:13.661Z,19
2022-08-12T13:29:16.794Z,19
2022-08-12T13:30:24.792Z,19
2022-08-12T13:31:27.893Z,19
2022-08-12T13:32:43.728Z,19
2022-08-12T13:34:37.416Z,19
2022-08-12T13:36:19.964Z,19
2022-08-12T13:37:24.292Z,19
2022-08-12T13:38:57.365Z,19
2022-08-12T13:39:59.178Z,19
2022-08-12T13:41:02.698Z,18
2022-08-12T13:42:15.106Z,19
2022-08-12T13:43:44.100Z,19
2022-08-12T13:44:47.770Z,19
2022-08-12T13:45:56.180Z,19
2022-08-12T13:47:21.466Z,19
2022-08-12T13:48:29.962Z,19
2022-08-12T13:49:56.967Z,19
2022-08-12T13:51:05.441Z,19
2022-08-12T13:52:08.868Z,19
2022-08-12T13:54:07.165Z,19
2022-08-12T13:55:15.960Z,20
2022-08-12T13:56:22.776Z,19
2022-08-12T13:57:26.617Z,19
2022-08-12T13:58:36.032Z,19
2022-08-12T14:00:02.213Z,19
2022-08-12T14:01:08.968Z,18
2022-08-12T14:02:11.743Z,18
2022-08-12T14:03:14.019Z,18
2022-08-12T14:04:20.930Z,18
2022-08-12T14:05:39.746Z,18
2022-08-12T14:06:45.766Z,18
2022-08-12T14:07:55.136Z,18
2022-08-12T14:08:57.485Z,18
2022-08-12T14:10:29.395Z,18
2022-08-12T14:11:33.022Z,18
2022-08-12T14:12:35.236Z,18
2022-08-12T14:14:14.502Z,18
2022-08-12T14:15:36.656Z,18
2022-08-12T14:16:52.771Z,17
2022-08-12T14:17:57.681Z,18
2022-08-12T14:19:04.304Z,18
2022-08-12T14:20:49.723Z,18
2022-08-12T14:22:05.735Z,18
2022-08-12T14:24:11.620Z,18
2022-08-12T14:25:17.761Z,18
2022-08-12T14:26:22.299Z,18
2022-08-12T14:28:07.690Z,18
2022-08-12T14:30:24.245Z,18
2022-08-12T14:31:33.045Z,18
2022-08-12T14:32:37.196Z,18
2022-08-12T14:33:45.457Z,18
2022-08-12T14:34:47.481Z,18
2022-08-12T14:35:51.611Z,18
2022-08-12T14:36:55.065Z,18
2022-08-12T14:38:00.078Z,18
2022-08-12T14:39:05.571Z,18
2022-08-12T14:40:08.621Z,18
2022-08-12T14:41:11.584Z,18
2022-08-12T14:42:18.947Z,18
2022-08-12T14:44:57.165Z,18
2022-08-12T14:46:09.874Z,18
2022-08-12T14:47:11.949Z,18
2022-08-12T14:48:15.629Z,18
2022-08-12T14:58:35.759Z,18
2022-08-12T15:00:00.925Z,18
2022-08-12T15:01:07.571Z,18
2022-08-12T15:02:11.611Z,18
2022-08-12T15:03:16.598Z,18
2022-08-12T15:04:18.608Z,18
2022-08-12T15:06:53.651Z,18
2022-08-12T15:08:09.308Z,18
2022-08-12T15:09:13.523Z,18
2022-08-12T15:10:34.822Z,18
2022-08-12T15:12:04.996Z,18
2022-08-12T15:13:17.218Z,17
2022-08-12T15:14:19.979Z,17
2022-08-12T15:15:25.256Z,18
2022-08-12T15:16:28.064Z,17
2022-08-12T15:17:39.100Z,18
2022-08-12T15:19:00.185Z,18
2022-08-12T15:22:54.765Z,18
2022-08-12T15:23:58.631Z,18
2022-08-12T15:25:02.531Z,18
2022-08-12T15:26:05.273Z,18
2022-08-12T15:27:10.684Z,18
2022-08-12T15:28:24.464Z,18
2022-08-12T15:29:30.016Z,18
2022-08-12T15:30:34.226Z,18
2022-08-12T15:32:16.263Z,18
2022-08-12T15:33:46.926Z,17
2022-08-12T15:34:53.942Z,18
2022-08-12T15:35:56.001Z,17
2022-08-12T15:37:00.142Z,18
2022-08-12T15:38:19.999Z,18
2022-08-12T15:39:29.269Z,17
2022-08-12T15:40:48.929Z,18
2022-08-12T15:42:02.416Z,18
2022-08-12T15:43:09.831Z,18
2022-08-12T15:44:44.117Z,18
2022-08-12T15:45:48.598Z,18
2022-08-12T15:46:53.555Z,18
2022-08-12T15:48:21.681Z,18
2022-08-12T15:50:01.722Z,18
2022-08-12T15:51:09.807Z,18
2022-08-12T15:52:29.102Z,18
2022-08-12T15:53:32.115Z,18
2022-08-12T15:54:47.030Z,18
2022-08-12T15:55:51.670Z,18
2022-08-12T15:57:06.138Z,18
2022-08-12T15:58:34.203Z,18
2022-08-12T16:00:34.268Z,18
2022-08-12T16:01:36.956Z,18
2022-08-12T16:02:39.404Z,18
2022-08-12T16:04:01.414Z,18
2022-08-12T16:07:04.560Z,18
2022-08-12T16:08:28.340Z,18
2022-08-12T16:10:09.933Z,18
2022-08-12T16:11:19.924Z,18
2022-08-12T16:12:27.229Z,18
2022-08-12T16:13:36.275Z,18
2022-08-12T16:14:39.183Z,18
2022-08-12T16:16:04.129Z,18
2022-08-12T16:18:21.086Z,18
2022-08-12T16:20:06.489Z,19
2022-08-12T16:21:58.458Z,19
2022-08-12T16:23:58.644Z,19
2022-08-12T16:25:06.066Z,19
2022-08-12T16:26:34.057Z,19
2022-08-12T16:27:40.251Z,19
2022-08-12T16:28:48.570Z,19
2022-08-12T16:29:55.383Z,19
2022-08-12T16:30:58.287Z,19
2022-08-12T16:32:01.524Z,19
2022-08-12T16:33:05.521Z,19
2022-08-12T16:34:57.629Z,19
2022-08-12T16:36:02.567Z,19
2022-08-12T16:37:08.194Z,19
2022-08-12T16:38:30.510Z,19
2022-08-12T16:40:06.949Z,19
2022-08-12T16:41:10.768Z,19
2022-08-12T16:42:12.863Z,20
2022-08-12T16:43:16.178Z,20
2022-08-12T16:44:34.904Z,20
2022-08-12T16:46:34.991Z,20
2022-08-12T16:48:01.777Z,20
2022-08-12T16:49:15.945Z,20
2022-08-12T16:50:31.757Z,20
2022-08-12T16:51:47.751Z,20
2022-08-12T16:52:50.391Z,20
2022-08-12T16:53:52.968Z,20
2022-08-12T16:54:57.578Z,20
2022-08-12T16:56:01.318Z,20
2022-08-12T16:57:06.677Z,20
2022-08-12T16:58:31.784Z,21
2022-08-12T16:59:55.598Z,21
2022-08-12T17:01:04.082Z,21
2022-08-12T17:02:34.244Z,21
2022-08-12T17:03:55.301Z,21
2022-08-12T17:05:04.065Z,21
2022-08-12T17:06:09.885Z,21
2022-08-12T17:07:24.309Z,21
2022-08-12T17:08:30.887Z,21
2022-08-12T17:09:41.232Z,21
2022-08-12T17:10:54.258Z,21
2022-08-12T17:11:58.019Z,21
2022-08-12T17:13:11.214Z,21
2022-08-12T17:14:16.131Z,21
2022-08-12T17:16:18.350Z,21
2022-08-12T17:17:41.770Z,22
2022-08-12T17:19:09.981Z,22
2022-08-12T17:20:47.511Z,22
2022-08-12T17:22:03.731Z,22
2022-08-12T17:23:14.922Z,22
2022-08-12T17:24:31.147Z,22
2022-08-12T17:25:34.228Z,22
2022-08-12T17:26:37.576Z,22
2022-08-12T17:27:43.101Z,22
2022-08-12T17:28:54.051Z,22
2022-08-12T17:30:07.224Z,22
2022-08-12T17:32:03.070Z,22
2022-08-12T17:33:08.588Z,22
2022-08-12T17:34:19.218Z,22
2022-08-12T17:35:50.547Z,22
2022-08-12T17:36:52.907Z,22
2022-08-12T17:37:56.135Z,22
2022-08-12T17:39:01.201Z,23
2022-08-12T17:40:37.708Z,23
2022-08-12T17:41:58.616Z,23
2022-08-12T17:43:00.823Z,23
2022-08-12T17:44:04.784Z,23
2022-08-12T17:45:20.498Z,23
2022-08-12T17:46:34.514Z,23
2022-08-12T17:47:38.231Z,23
2022-08-12T17:48:58.972Z,24
2022-08-12T17:51:16.216Z,24
2022-08-12T17:52:19.496Z,24
2022-08-12T17:53:22.126Z,25
2022-08-12T17:54:24.550Z,24
2022-08-12T17:55:49.093Z,25
2022-08-12T17:56:52.767Z,25
2022-08-12T17:58:03.200Z,25
2022-08-12T17:59:51.994Z,25
2022-08-12T18:00:57.065Z,24
2022-08-12T18:02:00.290Z,24
2022-08-12T18:03:03.475Z,25
2022-08-12T18:04:37.132Z,24
2022-08-12T18:06:16.207Z,25
2022-08-12T18:07:19.166Z,25
2022-08-12T18:08:29.992Z,25
2022-08-12T18:09:38.014Z,25
2022-08-12T18:10:53.952Z,25
2022-08-12T18:12:09.404Z,26
2022-08-12T18:13:43.507Z,26
2022-08-12T18:14:48.641Z,26
2022-08-12T18:16:07.329Z,26
2022-08-12T18:17:27.853Z,26
2022-08-12T18:18:33.196Z,26
2022-08-12T18:20:16.876Z,26